CST,Max TemperatureF,Mean TemperatureF,Min TemperatureF,Max Dew PointF,MeanDew PointF,Min DewpointF,Max Humidity, Mean Humidity, Min Humidity, Max Sea Level PressureIn, Mean Sea Level PressureIn, Min Sea Level PressureIn, Max VisibilityMiles, Mean VisibilityMiles, Min VisibilityMiles, Max Wind SpeedMPH, Mean Wind SpeedMPH, Max Gust SpeedMPH,PrecipitationIn, CloudCover, Events, WindDirDegrees
2012-10-1,84,73,60,64,54,45,100,60,25,30.14,29.95,29.65,12,11,10,13,3,,0.00,4,,1
2012-10-2,80,65,50,54,47,37,94,57,23,30.21,30.04,29.78,12,10,10,15,3,,0.00,2,,66
2012-10-3,82,64,46,48,40,30,88,50,16,30.27,30.12,29.88,15,12,7,16,3,,0.00,0,,114
2012-10-4,84,64,44,45,38,28,87,48,15,30.32,30.18,29.91,15,14,8,20,2,,0.00,0,,106
2012-10-5,84,63,42,45,37,27,81,45,13,30.30,30.14,29.86,12,10,10,10,2,,0.00,0,,75
2012-10-6,82,66,51,57,47,32,88,55,26,30.21,30.04,29.72,10,8,4,7,1,,0.00,1,,108
2012-10-7,84,70,57,59,50,39,94,59,20,30.20,30.02,29.71,10,9,5,8,2,,0.00,2,,71
2012-10-8,84,67,50,55,47,36,88,52,18,30.25,30.07,29.75,10,10,8,8,2,,0.00,0,,184
2012-10-9,84,68,53,59,53,46,88,62,27,30.26,30.07,29.79,10,8,6,9,2,,0.00,2,,144
2012-10-10,84,70,55,73,55,43,94,67,25,30.24,30.05,29.74,10,8,4,12,2,,0.00,3,Rain,109
2012-10-11,84,72,59,61,57,52,94,70,33,30.25,30.08,29.80,10,8,4,18,2,,2.05,5,Rain-Thunderstorm,354
2012-10-12,86,73,60,61,54,39,94,60,29,30.29,30.11,29.72,12,9,1,10,3,,0.00,4,,118
2012-10-13,84,73,62,61,59,50,94,67,35,30.29,30.09,29.78,10,9,7,9,2,,0.00,6,,131
2012-10-14,84,72,59,63,58,52,94,68,33,30.24,30.05,29.74,10,8,6,8,2,,0.00,3,,279
2012-10-15,80,70,60,63,58,52,94,72,39,30.21,30.04,29.73,10,10,7,12,4,,0.00,5,Rain,189
2012-10-16,80,70,59,61,57,52,100,71,39,30.16,30.01,29.73,10,9,2,9,1,,0.00,4,,239
2012-10-17,80,66,53,59,53,41,100,67,26,30.21,30.05,29.75,10,9,5,18,2,,0.00,3,,240
2012-10-18,86,70,53,59,55,48,100,64,27,30.18,30.01,29.67,10,10,8,9,2,,0.00,2,,258
2012-10-19,89,73,57,61,57,48,94,65,24,30.14,29.98,29.64,10,8,0,8,1,,0.00,2,Fog,288
2012-10-20,84,73,62,61,56,48,94,61,35,30.15,29.97,29.65,10,8,4,12,4,,0.00,6,Rain,301
2012-10-21,84,73,62,61,59,54,94,67,37,30.16,29.97,29.66,10,8,5,6,1,,0.00,3,,190
2012-10-22,86,74,62,63,55,43,94,62,23,30.19,29.98,29.66,10,8,7,9,1,,0.00,4,,78
2012-10-23,87,74,59,63,54,39,94,64,18,30.13,29.95,29.62,10,8,2,8,2,,0.00,2,,92
2012-10-24,84,68,51,52,47,37,94,53,19,30.17,29.99,29.68,10,9,6,6,2,,0.00,0,,194
2012-10-25,84,70,57,61,54,39,94,63,20,30.15,29.96,29.67,10,7,3,8,2,,0.00,2,,253
2012-10-26,86,70,55,61,54,48,100,66,29,30.14,29.97,29.68,10,6,0,6,1,,0.00,1,Fog,108
2012-10-27,82,70,57,57,51,39,88,58,26,30.18,29.99,29.71,10,10,8,14,3,,0.00,1,,119
2012-10-28,82,70,57,57,53,46,94,63,28,30.22,30.04,29.70,10,7,2,28,3,,0.15,3,Rain,260
2012-10-29,80,68,57,59,55,48,94,71,34,30.28,30.12,29.84,10,7,2,17,4,,4.55,6,Rain-Thunderstorm,120
2012-10-30,78,64,51,55,51,45,100,67,30,30.26,30.10,29.83,10,8,5,12,2,,0.00,2,,208
2012-10-31,80,64,48,54,43,36,100,54,21,30.24,30.08,29.82,12,10,7,8,2,,0.00,1,,302